»·PEaware :: SWA389 KSAN-KLAS

SWA389 :: KSAN-KLAS

FLIGHT INFORMATION

Flight Status: Arrived
Operator:
Southwest Airlines
More flights by this operator :: More flights under this callsign
Pilot: Alfredo R. (12181)
Aircraft: BOEING 737-800
(B738)
More flights by this aircraft type
Origin: KSAN San Diego Intl-Lindbergh
United States
Destination: KLAS McCarran Intl
United States
More flights between these airports :: More routes between these airports
Route: PADRZ2 CHKNN SEBBY YELAH MISEN KEPEC6
File this flight plan on PilotEdge
Remarks:
Altitude:
(Current/Filed)
29,000ft
Speed:
(Current/Filed)
425kts
Departed: 12-Apr-18 06:52 PM
Arrived: 12-Apr-18 07:50 PM
Distance/Time
Traveled:
225nm/0:58
Distance/Time
To Go:
Arrived

Flight Plot

Page will automatically refresh every two minutes.

Flight plan parsing failed; only flown route is shown


Map Options




Map Legend


Flown Route
Filed Route
Departure Airport
Arrival Airport
Navaid (VOR, NDB)
Fix

Horizontal Profiles

Position Reports

Time Latitude Longitude Heading Altitude Ground
Speed
12-Apr-18 18:21 32.732326 -117.195913 306 25ft 0kts
12-Apr-18 18:22 32.732326 -117.195913 306 25ft 0kts
12-Apr-18 18:23 32.732326 -117.195913 306 25ft 0kts
12-Apr-18 18:24 32.732326 -117.195913 306 25ft 0kts
12-Apr-18 18:25 32.732326 -117.195913 306 25ft 0kts
12-Apr-18 18:26 32.732326 -117.195913 306 25ft 0kts
12-Apr-18 18:27 32.732326 -117.195913 306 25ft 0kts
12-Apr-18 18:28 32.732326 -117.195913 306 25ft 0kts
12-Apr-18 18:29 32.732326 -117.195913 306 25ft 0kts
12-Apr-18 18:30 32.732326 -117.195913 306 25ft 0kts
12-Apr-18 18:31 32.732326 -117.195913 306 25ft 0kts
12-Apr-18 18:32 32.732326 -117.195913 306 25ft 0kts
12-Apr-18 18:33 32.732326 -117.195913 306 25ft 0kts
12-Apr-18 18:34 32.732206 -117.195719 306 25ft 2kts
12-Apr-18 18:35 32.731943 -117.195106 328 25ft 2kts
12-Apr-18 18:36 32.731635 -117.195076 15 25ft 0kts
12-Apr-18 18:37 32.731635 -117.195076 15 25ft 0kts
12-Apr-18 18:38 32.731635 -117.195076 15 25ft 0kts
12-Apr-18 18:39 32.731635 -117.195076 15 25ft 0kts
12-Apr-18 18:40 32.731640 -117.195075 15 25ft 0kts
12-Apr-18 18:41 32.731870 -117.195002 15 25ft 1kts
12-Apr-18 18:42 32.732294 -117.194804 26 25ft 3kts
12-Apr-18 18:43 32.733470 -117.193692 88 25ft 6kts
12-Apr-18 18:44 32.732793 -117.190771 105 25ft 13kts
12-Apr-18 18:45 32.731666 -117.186097 106 25ft 16kts
12-Apr-18 18:46 32.730426 -117.180978 106 25ft 16kts
12-Apr-18 18:47 32.729511 -117.176864 81 25ft 5kts
12-Apr-18 18:48 32.729528 -117.176765 77 25ft 0kts
12-Apr-18 18:49 32.729889 -117.175882 17 25ft 5kts
12-Apr-18 18:50 32.730873 -117.178634 285 25ft 38kts
12-Apr-18 18:51 32.740742 -117.217032 296 936ft 168kts
12-Apr-18 18:52 32.769697 -117.266218 305 2856ft 208kts
12-Apr-18 18:53 32.804897 -117.327540 309 5697ft 234kts
12-Apr-18 18:54 32.844805 -117.389402 310 8535ft 242kts
12-Apr-18 18:55 32.886783 -117.454335 310 10741ft 266kts
12-Apr-18 18:56 32.932748 -117.525597 309 13343ft 275kts
12-Apr-18 18:57 32.979601 -117.598406 308 15996ft 281kts
12-Apr-18 18:58 33.027302 -117.672704 306 18399ft 288kts
12-Apr-18 18:59 33.078494 -117.746886 315 20658ft 297kts
12-Apr-18 19:00 33.142489 -117.811631 315 22642ft 307kts
12-Apr-18 19:01 33.208852 -117.878295 316 24483ft 316kts
12-Apr-18 19:02 33.265585 -117.933330 315 26089ft 316kts
12-Apr-18 19:03 33.333932 -117.999796 315 27717ft 320kts
12-Apr-18 19:04 33.405171 -118.063166 330 29083ft 341kts
12-Apr-18 19:05 33.505094 -118.043677 21 29112ft 457kts
12-Apr-18 19:06 33.591344 -117.959791 27 29100ft 476kts
12-Apr-18 19:07 33.684823 -117.865722 27 29099ft 476kts
12-Apr-18 19:08 33.783558 -117.765967 27 29097ft 472kts
12-Apr-18 19:09 33.882839 -117.665433 26 29096ft 471kts
12-Apr-18 19:10 33.982170 -117.564514 27 29090ft 470kts
12-Apr-18 19:11 34.081660 -117.463176 27 29083ft 472kts
12-Apr-18 19:12 34.181324 -117.361236 26 29126ft 472kts
12-Apr-18 19:13 34.281127 -117.258906 27 29107ft 472kts
12-Apr-18 19:14 34.381304 -117.155810 27 29122ft 473kts
12-Apr-18 19:15 34.480627 -117.053293 27 29125ft 472kts
12-Apr-18 19:16 34.580341 -116.950018 27 29111ft 473kts
12-Apr-18 19:17 34.679676 -116.846831 27 29102ft 473kts
12-Apr-18 19:18 34.779174 -116.743031 27 29100ft 462kts
12-Apr-18 19:19 34.874568 -116.643067 27 29034ft 448kts
12-Apr-18 19:20 34.967845 -116.545202 27 27561ft 433kts
12-Apr-18 19:21 35.055400 -116.453047 27 26038ft 407kts
12-Apr-18 19:22 35.137806 -116.361287 32 24593ft 403kts
12-Apr-18 19:23 35.214463 -116.264784 33 23084ft 391kts
12-Apr-18 19:24 35.288456 -116.171347 33 21602ft 371kts
12-Apr-18 19:25 35.358717 -116.082546 33 20104ft 358kts
12-Apr-18 19:26 35.426731 -115.996429 34 18612ft 347kts
12-Apr-18 19:27 35.493093 -115.912312 34 17116ft 342kts
12-Apr-18 19:28 35.558588 -115.829157 36 15622ft 338kts
12-Apr-18 19:29 35.622347 -115.747772 36 14063ft 308kts
12-Apr-18 19:30 35.681337 -115.672440 38 12971ft 300kts
12-Apr-18 19:31 35.739114 -115.598572 37 12978ft 300kts
12-Apr-18 19:32 35.812263 -115.571374 357 12990ft 277kts
12-Apr-18 19:33 35.889274 -115.567243 357 12990ft 277kts
12-Apr-18 19:34 35.965120 -115.552798 28 12742ft 292kts
12-Apr-18 19:35 36.005350 -115.463404 62 11883ft 305kts
12-Apr-18 19:36 36.032876 -115.371806 72 10923ft 282kts
12-Apr-18 19:37 36.026573 -115.276036 91 10044ft 283kts
12-Apr-18 19:38 36.018700 -115.182889 89 9054ft 258kts
12-Apr-18 19:39 36.012399 -115.097229 90 8124ft 250kts
12-Apr-18 19:40 36.004070 -115.013878 91 7136ft 243kts
12-Apr-18 19:41 35.995975 -114.934943 91 6131ft 230kts
12-Apr-18 19:42 36.021705 -114.885194 342 5230ft 184kts
12-Apr-18 19:43 36.059166 -114.924627 315 4516ft 170kts
12-Apr-18 19:44 36.073620 -114.976508 275 4054ft 170kts
12-Apr-18 19:45 36.072116 -115.028354 269 3532ft 132kts
12-Apr-18 19:46 36.073679 -115.071371 274 3157ft 128kts
12-Apr-18 19:47 36.073475 -115.115184 276 2291ft 128kts
12-Apr-18 19:48 36.073688 -115.158680 268 2154ft 86kts
12-Apr-18 19:49 36.075775 -115.161258 0 2158ft 11kts
12-Apr-18 19:50 36.078020 -115.158912 88 2145ft 18kts
12-Apr-18 19:51 36.078018 -115.151514 90 2117ft 22kts
12-Apr-18 19:52 36.078827 -115.148141 353 2103ft 10kts
12-Apr-18 19:53 36.079874 -115.147214 56 2097ft 2kts
12-Apr-18 19:54 36.079923 -115.147120 56 2096ft 0kts

Navigation Log

Ident Type
Flight plan parsing failed, navigation log unavailable